Time;durP1;ratioP1;P1;durP2;ratioP2;P2;SDS_P1;SDS_P2;PMS_P1;PMS_P2;Temp;Humidity;BMP_temperature;BMP_pressure;BME280_temperature;BME280_humidity;BME280_pressure;Samples;Min_cycle;Max_cycle;Signal;HPM_P1;HPM_P2
2023/06/11 00:01:15;;;;;;;12.10;6.22;;;;;;;18.83;100.00;96913.22;5114978;28;20026;-83
2023/06/11 00:03:42;;;;;;;13.18;7.38;;;;;;;18.82;100.00;96906.97;5107261;27;20038;-83
2023/06/11 00:06:07;;;;;;;11.30;7.55;;;;;;;18.75;100.00;96916.75;5131677;27;20022;-83
2023/06/11 00:08:33;;;;;;;11.05;7.05;;;;;;;18.77;100.00;96912.00;5114414;28;20023;-83
2023/06/11 00:10:59;;;;;;;12.15;7.25;;;;;;;18.70;100.00;96907.41;5126522;27;20475;-82
2023/06/11 00:13:26;;;;;;;11.10;7.88;;;;;;;18.74;100.00;96909.63;5127662;27;20027;-82
2023/06/11 00:15:52;;;;;;;13.57;7.72;;;;;;;18.72;100.00;96900.81;5102208;28;20084;-82
2023/06/11 00:18:17;;;;;;;13.75;8.25;;;;;;;18.72;100.00;96910.81;5120030;27;20047;-81
2023/06/11 00:20:43;;;;;;;11.70;7.93;;;;;;;18.75;100.00;96903.22;5131858;28;20024;-82
2023/06/11 00:23:09;;;;;;;13.43;7.28;;;;;;;18.64;100.00;96903.47;5115268;28;20088;-82
2023/06/11 00:25:35;;;;;;;11.02;7.32;;;;;;;18.69;100.00;96905.72;5110431;28;20407;-82
2023/06/11 00:28:00;;;;;;;15.05;8.10;;;;;;;18.63;100.00;96911.78;5100633;28;20019;-81
2023/06/11 00:30:26;;;;;;;12.05;7.32;;;;;;;18.60;100.00;96907.53;5104035;28;20516;-82
2023/06/11 00:32:51;;;;;;;15.85;7.32;;;;;;;18.65;100.00;96888.91;5093683;28;20031;-81
2023/06/11 00:35:17;;;;;;;12.45;7.07;;;;;;;18.66;100.00;96893.34;5127785;28;20033;-81
2023/06/11 00:37:42;;;;;;;11.52;7.25;;;;;;;18.68;100.00;96890.44;5106138;28;20023;-82
2023/06/11 00:40:09;;;;;;;11.63;6.45;;;;;;;18.79;100.00;96890.19;5106082;28;20049;-83
2023/06/11 00:42:35;;;;;;;10.57;6.70;;;;;;;18.77;100.00;96874.06;5113913;28;20043;-82
2023/06/11 00:45:04;;;;;;;9.77;6.30;;;;;;;18.71;100.00;96869.31;5132491;27;20172;-83
2023/06/11 00:47:30;;;;;;;11.45;6.43;;;;;;;18.66;100.00;96874.38;5112598;28;20111;-81
2023/06/11 00:49:56;;;;;;;11.05;6.40;;;;;;;18.63;100.00;96872.00;5115977;28;20077;-81
2023/06/11 00:52:22;;;;;;;7.85;6.00;;;;;;;18.74;100.00;96877.13;5131158;28;20034;-80
2023/06/11 00:54:47;;;;;;;8.00;6.05;;;;;;;18.74;100.00;96870.84;5131329;28;20031;-83
2023/06/11 00:57:17;;;;;;;10.50;5.55;;;;;;;18.74;100.00;96863.56;5113885;28;20478;-82
2023/06/11 00:59:48;;;;;;;9.32;5.97;;;;;;;18.65;100.00;96866.41;5111537;28;20487;-82
2023/06/11 01:02:25;;;;;;;11.07;6.15;;;;;;;18.59;100.00;96878.72;5114086;27;20031;-82
2023/06/11 01:04:56;;;;;;;11.93;5.75;;;;;;;18.53;100.00;96886.66;5122305;27;20024;-82
2023/06/11 01:07:23;;;;;;;13.45;6.13;;;;;;;18.60;100.00;96885.84;5098101;28;20398;-82
2023/06/11 01:09:48;;;;;;;11.52;6.97;;;;;;;18.56;100.00;96886.31;5134985;27;20112;-81
2023/06/11 01:12:14;;;;;;;11.07;6.45;;;;;;;18.58;100.00;96901.41;5117794;27;20059;-82
2023/06/11 01:14:39;;;;;;;13.02;6.45;;;;;;;18.56;100.00;96911.56;5126450;27;20028;-82
2023/06/11 01:17:15;;;;;;;11.25;6.43;;;;;;;18.53;100.00;96911.88;5135796;27;20035;-82
2023/06/11 01:19:52;;;;;;;10.35;6.40;;;;;;;18.61;100.00;96914.63;5098637;28;20054;-82
2023/06/11 01:22:29;;;;;;;9.98;6.80;;;;;;;18.56;100.00;96916.13;5129789;27;20031;-82
2023/06/11 01:25:20;;;;;;;14.63;7.22;;;;;;;18.37;100.00;96922.56;5118472;27;20027;-82
2023/06/11 01:28:03;;;;;;;15.90;7.43;;;;;;;18.40;100.00;96922.25;5122852;27;20043;-81
2023/06/11 01:30:34;;;;;;;12.82;6.97;;;;;;;18.44;100.00;96920.94;5131059;27;20509;-82
2023/06/11 01:33:00;;;;;;;10.27;7.43;;;;;;;18.40;100.00;96922.25;5104531;28;20023;-81
2023/06/11 01:35:27;;;;;;;15.52;7.15;;;;;;;18.49;100.00;96915.91;5105145;28;20046;-81
2023/06/11 01:37:55;;;;;;;10.60;6.50;;;;;;;18.37;100.00;96918.00;5108722;27;20537;-82
2023/06/11 01:40:23;;;;;;;14.75;7.13;;;;;;;18.39;100.00;96917.84;5111186;28;20088;-82
2023/06/11 01:42:49;;;;;;;12.65;6.95;;;;;;;18.38;100.00;96908.03;5096434;28;20114;-82
2023/06/11 01:45:16;;;;;;;10.10;6.90;;;;;;;18.44;100.00;96907.38;5111438;27;20023;-83
2023/06/11 01:47:44;;;;;;;12.75;6.82;;;;;;;18.55;100.00;96909.84;5115303;27;20084;-83
2023/06/11 01:50:11;;;;;;;15.88;6.95;;;;;;;18.53;100.00;96909.16;5113715;28;20423;-84
2023/06/11 01:52:39;;;;;;;10.88;6.90;;;;;;;18.52;100.00;96915.59;5113567;28;20034;-83
2023/06/11 01:55:06;;;;;;;13.70;7.47;;;;;;;18.49;100.00;96910.50;5129084;27;20521;-83
2023/06/11 01:57:32;;;;;;;16.08;6.88;;;;;;;18.51;100.00;96921.19;5133997;27;20473;-84
2023/06/11 01:59:58;;;;;;;11.80;7.72;;;;;;;18.53;100.00;96917.28;5113605;27;20050;-83
2023/06/11 02:02:24;;;;;;;9.95;6.63;;;;;;;18.48;100.00;96903.34;5101169;28;20111;-82
2023/06/11 02:04:49;;;;;;;10.68;6.38;;;;;;;18.56;100.00;96916.13;5123523;27;20031;-81
2023/06/11 02:07:15;;;;;;;14.77;6.72;;;;;;;18.55;100.00;96925.28;5116699;27;20127;-81
2023/06/11 02:09:41;;;;;;;11.95;7.32;;;;;;;18.59;100.00;96930.19;5125998;27;20023;-82
2023/06/11 02:12:07;;;;;;;16.67;7.20;;;;;;;18.57;100.00;96932.22;5112273;27;20031;-82
2023/06/11 02:14:32;;;;;;;10.38;7.63;;;;;;;18.58;100.00;96936.63;5110543;27;20500;-82
2023/06/11 02:16:58;;;;;;;16.02;7.00;;;;;;;18.59;100.00;96937.47;5113105;28;20035;-82
2023/06/11 02:19:23;;;;;;;15.43;7.78;;;;;;;18.55;100.00;96936.94;5130158;27;20468;-82
2023/06/11 02:21:49;;;;;;;11.32;7.30;;;;;;;18.50;100.00;96939.28;5129706;27;20028;-82
2023/06/11 02:24:15;;;;;;;13.38;7.68;;;;;;;18.51;100.00;96957.25;5111609;27;20105;-83
2023/06/11 02:26:40;;;;;;;19.92;7.43;;;;;;;18.45;100.00;96963.25;5113355;28;20023;-82
2023/06/11 02:29:06;;;;;;;12.77;7.90;;;;;;;18.34;100.00;96949.97;5115770;27;20112;-82
2023/06/11 02:31:31;;;;;;;14.77;7.22;;;;;;;18.28;100.00;96950.59;5095361;28;20027;-82
2023/06/11 02:33:57;;;;;;;12.07;6.75;;;;;;;18.32;100.00;96946.56;5101358;28;20062;-81
2023/06/11 02:36:23;;;;;;;14.20;7.10;;;;;;;18.38;100.00;96945.94;5131418;27;20023;-83
2023/06/11 02:38:49;;;;;;;11.43;6.70;;;;;;;18.31;100.00;96952.97;5121548;27;20027;-82
2023/06/11 02:41:15;;;;;;;16.27;6.88;;;;;;;18.25;100.00;96949.03;5115931;27;20027;-81
2023/06/11 02:43:41;;;;;;;11.13;6.78;;;;;;;18.20;100.00;96945.97;5132896;27;20027;-83
2023/06/11 02:46:07;;;;;;;13.20;7.07;;;;;;;18.29;100.00;96965.84;5133322;27;20455;-82
2023/06/11 02:48:32;;;;;;;12.73;7.00;;;;;;;18.32;100.00;96962.81;5134613;27;20026;-82
2023/06/11 02:50:58;;;;;;;11.52;7.07;;;;;;;18.34;100.00;96956.22;5105267;28;20026;-82
2023/06/11 02:53:23;;;;;;;9.32;6.18;;;;;;;18.38;100.00;96963.03;5121586;27;20031;-82
2023/06/11 02:55:49;;;;;;;21.08;7.85;;;;;;;18.35;100.00;96946.25;5113217;27;20019;-82
2023/06/11 02:58:15;;;;;;;10.85;7.20;;;;;;;18.35;100.00;96965.22;5111172;28;20020;-82
2023/06/11 03:00:40;;;;;;;11.05;6.82;;;;;;;18.36;100.00;96950.66;5120716;27;20023;-82
2023/06/11 03:03:06;;;;;;;15.30;6.68;;;;;;;18.43;100.00;96959.84;5111832;28;20032;-83
2023/06/11 03:05:31;;;;;;;12.13;6.68;;;;;;;18.37;100.00;96950.50;5117914;27;20019;-82
2023/06/11 03:07:57;;;;;;;10.98;6.63;;;;;;;18.45;100.00;96949.72;5113616;27;20105;-82
2023/06/11 03:10:23;;;;;;;11.68;6.93;;;;;;;18.45;100.00;96957.84;5120231;27;20027;-82
2023/06/11 03:12:49;;;;;;;14.82;6.80;;;;;;;18.38;100.00;96965.75;5111486;27;20018;-82
2023/06/11 03:15:15;;;;;;;15.95;7.55;;;;;;;18.35;100.00;96962.50;5132048;27;20050;-83
2023/06/11 03:17:40;;;;;;;13.05;6.68;;;;;;;18.50;100.00;96970.94;5115217;27;20063;-83
2023/06/11 03:20:06;;;;;;;17.55;6.97;;;;;;;18.57;100.00;96967.44;5131472;27;20055;-81
2023/06/11 03:22:32;;;;;;;11.70;6.90;;;;;;;18.55;100.00;96964.03;5125911;27;20019;-83
2023/06/11 03:24:57;;;;;;;10.45;6.97;;;;;;;18.56;100.00;96971.16;5112521;28;20028;-82
2023/06/11 03:27:23;;;;;;;16.00;7.03;;;;;;;18.70;100.00;96967.84;5094406;28;20108;-82
2023/06/11 03:29:48;;;;;;;14.05;7.00;;;;;;;18.73;100.00;96966.72;5110798;28;20497;-83
2023/06/11 03:32:14;;;;;;;17.98;6.90;;;;;;;18.66;100.00;96966.50;5102432;28;20031;-83
2023/06/11 03:34:39;;;;;;;12.70;6.63;;;;;;;18.66;100.00;96987.31;5125931;27;20058;-83
2023/06/11 03:37:05;;;;;;;17.33;7.07;;;;;;;18.59;100.00;96980.81;5114425;27;20115;-82
2023/06/11 03:39:31;;;;;;;12.13;6.60;;;;;;;18.59;100.00;96975.41;5118299;27;20045;-82
2023/06/11 03:41:56;;;;;;;12.05;6.68;;;;;;;18.69;100.00;96978.88;5093846;28;20020;-83
2023/06/11 03:44:21;;;;;;;77.85;28.17;;;;;;;18.68;100.00;96974.44;5102910;28;20084;-83
2023/06/11 03:46:47;;;;;;;13.13;6.72;;;;;;;18.73;100.00;96985.69;5117840;27;20422;-82
2023/06/11 03:49:13;;;;;;;12.73;7.20;;;;;;;18.68;100.00;96986.13;5095010;28;20062;-81
2023/06/11 03:51:38;;;;;;;17.25;7.25;;;;;;;18.68;100.00;96979.88;5116460;27;20392;-83
2023/06/11 03:54:04;;;;;;;12.98;7.68;;;;;;;18.74;100.00;96979.22;5114070;27;20038;-83
2023/06/11 03:56:29;;;;;;;10.25;6.55;;;;;;;18.81;100.00;96977.59;5111680;28;20019;-83
2023/06/11 03:58:55;;;;;;;10.80;6.60;;;;;;;18.88;100.00;96979.50;5111452;28;20554;-83
2023/06/11 04:01:21;;;;;;;11.52;7.20;;;;;;;18.88;100.00;96971.38;5113583;27;20042;-83
2023/06/11 04:03:46;;;;;;;14.65;7.25;;;;;;;18.80;100.00;96970.47;5132195;27;20451;-83
2023/06/11 04:06:12;;;;;;;12.98;6.75;;;;;;;18.75;100.00;96975.50;5113033;28;20092;-83
2023/06/11 04:08:38;;;;;;;12.75;7.50;;;;;;;18.87;100.00;96975.09;5102378;28;20023;-82
2023/06/11 04:11:03;;;;;;;16.63;7.28;;;;;;;18.83;100.00;96978.25;5093405;28;20081;-81
2023/06/11 04:13:29;;;;;;;12.00;6.90;;;;;;;18.84;100.00;96982.69;5110365;28;20425;-82
2023/06/11 04:15:54;;;;;;;9.05;6.63;;;;;;;18.80;100.00;96975.88;5110283;28;20027;-82
2023/06/11 04:18:20;;;;;;;15.27;6.93;;;;;;;18.92;100.00;96972.75;5110229;28;20484;-81
2023/06/11 04:20:46;;;;;;;13.40;7.10;;;;;;;18.91;100.00;96967.50;5119405;28;20027;-82
2023/06/11 04:23:11;;;;;;;11.48;6.40;;;;;;;19.10;100.00;96964.56;5110218;28;20027;-81
2023/06/11 04:25:39;;;;;;;12.95;7.18;;;;;;;19.25;100.00;96962.06;5093289;28;20403;-82
2023/06/11 04:28:05;;;;;;;11.70;7.80;;;;;;;19.41;100.00;96956.75;5093637;28;20023;-82
2023/06/11 04:30:31;;;;;;;16.60;6.97;;;;;;;19.45;100.00;96947.25;5093100;28;20030;-81
2023/06/11 04:32:57;;;;;;;14.60;7.30;;;;;;;19.69;100.00;96944.59;5125634;27;20029;-82
2023/06/11 04:35:26;;;;;;;14.90;7.03;;;;;;;19.81;100.00;96945.97;5131352;27;20023;-82
2023/06/11 04:37:52;;;;;;;14.93;7.45;;;;;;;19.89;100.00;96940.59;5115441;28;20031;-81
2023/06/11 04:40:19;;;;;;;14.60;7.90;;;;;;;19.79;100.00;96930.88;5098414;27;20177;-82
2023/06/11 04:42:46;;;;;;;10.93;6.57;;;;;;;19.64;100.00;96929.84;5129724;27;20073;-82
2023/06/11 04:45:12;;;;;;;14.00;7.10;;;;;;;19.71;100.00;96939.88;5113942;28;20026;-82
2023/06/11 04:47:38;;;;;;;15.38;7.32;;;;;;;20.00;100.00;96926.66;5109423;27;20023;-82
2023/06/11 04:50:05;;;;;;;12.30;6.78;;;;;;;20.16;100.00;96935.84;5118847;27;20034;-81
2023/06/11 04:52:43;;;;;;;9.45;6.35;;;;;;;20.28;100.00;96919.06;5107252;27;20456;-83
2023/06/11 04:55:12;;;;;;;8.68;6.47;;;;;;;20.27;100.00;96917.38;5118384;27;20019;-81
2023/06/11 04:57:38;;;;;;;11.35;6.53;;;;;;;20.31;100.00;96917.88;5134223;27;20019;-83
2023/06/11 05:00:07;;;;;;;12.85;6.75;;;;;;;20.47;100.00;96901.56;5101544;28;20472;-83
2023/06/11 05:02:37;;;;;;;8.68;6.10;;;;;;;20.69;100.00;96903.56;5114976;27;20035;-81
2023/06/11 05:05:04;;;;;;;8.93;6.28;;;;;;;20.67;100.00;96904.78;5117438;27;20030;-82
2023/06/11 05:07:30;;;;;;;8.07;6.13;;;;;;;20.80;100.00;96903.19;5114921;27;20031;-82
2023/06/11 05:09:57;;;;;;;12.98;6.80;;;;;;;20.62;100.00;96899.84;5110866;27;20395;-83
2023/06/11 05:12:23;;;;;;;11.90;8.35;;;;;;;20.86;100.00;96898.91;5124576;27;20035;-83
2023/06/11 05:14:48;;;;;;;10.80;7.20;;;;;;;21.13;100.00;96897.69;5115021;28;20016;-82
2023/06/11 05:17:15;;;;;;;11.80;6.47;;;;;;;20.88;100.00;96903.19;5114359;27;20437;-83
2023/06/11 05:32:11;;;;;;;11.47;6.20;;;;;;;21.74;100.00;96894.13;5121576;27;20031;-80
2023/06/11 05:34:39;;;;;;;15.98;7.25;;;;;;;22.00;100.00;96909.09;5102969;27;20891;-87
2023/06/11 05:37:05;;;;;;;13.85;8.05;;;;;;;22.03;100.00;96906.03;5112642;28;20028;-81
2023/06/11 05:39:31;;;;;;;14.32;9.70;;;;;;;22.05;100.00;96914.03;5121782;27;20401;-77
2023/06/11 05:41:57;;;;;;;14.57;7.97;;;;;;;22.12;100.00;96902.19;5121701;27;20034;-79
2023/06/11 05:44:22;;;;;;;10.82;7.25;;;;;;;22.25;100.00;96907.03;5120769;27;20038;-79
2023/06/11 05:46:51;;;;;;;10.48;7.15;;;;;;;22.40;100.00;96901.63;5122401;27;20065;-78
2023/06/11 05:49:16;;;;;;;14.77;9.40;;;;;;;22.43;100.00;96898.53;5124970;27;20514;-79
2023/06/11 05:51:42;;;;;;;12.30;6.90;;;;;;;22.57;100.00;96900.47;5122410;27;20058;-79
2023/06/11 05:54:07;;;;;;;19.13;8.98;;;;;;;22.80;100.00;96903.13;5123147;27;20059;-78
2023/06/11 05:56:33;;;;;;;19.15;12.13;;;;;;;22.92;100.00;96898.91;5119575;27;20031;-85
2023/06/11 05:59:04;;;;;;;16.25;7.90;;;;;;;23.13;100.00;96902.56;5125497;27;20027;-79
2023/06/11 06:01:38;;;;;;;18.15;7.75;;;;;;;23.05;100.00;96896.38;5122430;27;20023;-78
2023/06/11 06:04:03;;;;;;;12.93;6.32;;;;;;;23.02;100.00;96894.03;5118720;27;20114;-80
2023/06/11 06:06:30;;;;;;;9.00;6.78;;;;;;;22.96;100.00;96911.16;5120792;27;20106;-83
2023/06/11 06:08:55;;;;;;;13.10;7.03;;;;;;;22.99;100.00;96906.16;5124214;27;20418;-78
2023/06/11 06:11:21;;;;;;;14.60;8.02;;;;;;;22.92;100.00;96910.66;5105466;27;20030;-79
2023/06/11 06:13:46;;;;;;;16.23;7.88;;;;;;;22.35;100.00;96912.25;5120837;27;20035;-78
2023/06/11 06:16:15;;;;;;;10.88;6.70;;;;;;;22.38;100.00;96912.72;5126557;27;20032;-79
2023/06/11 06:18:42;;;;;;;9.40;6.85;;;;;;;22.97;100.00;96910.13;5116177;27;20044;-80
2023/06/11 06:21:07;;;;;;;14.55;7.90;;;;;;;22.77;100.00;96920.72;5122377;27;20035;-87
2023/06/11 06:23:33;;;;;;;10.23;6.55;;;;;;;23.16;100.00;96902.19;5110281;27;20030;-81
2023/06/11 06:25:58;;;;;;;10.70;6.45;;;;;;;23.29;100.00;96909.72;5122002;27;20464;-78
2023/06/11 06:28:24;;;;;;;17.33;6.63;;;;;;;23.37;100.00;96915.09;5126084;27;20058;-79
2023/06/11 06:30:50;;;;;;;10.95;6.93;;;;;;;23.76;100.00;96909.28;5101564;27;20020;-85
2023/06/11 06:33:16;;;;;;;11.20;6.38;;;;;;;23.82;100.00;96894.00;5127894;27;20488;-82
2023/06/11 06:35:41;;;;;;;11.57;6.35;;;;;;;23.86;100.00;96900.78;5121322;27;20102;-88
2023/06/11 06:38:07;;;;;;;76.05;47.65;;;;;;;23.89;100.00;96904.00;5109880;27;20066;-86
2023/06/11 06:40:32;;;;;;;13.40;7.70;;;;;;;24.17;100.00;96902.22;5112267;27;20030;-85
2023/06/11 06:42:58;;;;;;;11.80;6.47;;;;;;;24.62;100.00;96897.34;5119769;27;20019;-86
2023/06/11 06:45:24;;;;;;;8.85;6.38;;;;;;;25.06;100.00;96903.38;5102674;28;20023;-86
2023/06/11 06:47:49;;;;;;;9.43;6.30;;;;;;;25.22;100.00;96886.63;5092832;28;20137;-87
2023/06/11 06:50:15;;;;;;;17.67;6.65;;;;;;;25.38;100.00;96885.41;5102476;27;20027;-85
2023/06/11 06:52:41;;;;;;;27.40;10.45;;;;;;;25.27;100.00;96888.75;5110624;28;20027;-85
2023/06/11 06:55:06;;;;;;;16.33;6.80;;;;;;;25.21;100.00;96889.56;5120479;27;20460;-85
2023/06/11 06:57:32;;;;;;;11.55;6.88;;;;;;;25.38;100.00;96879.13;5118186;27;20031;-82
2023/06/11 06:59:58;;;;;;;8.45;6.00;;;;;;;25.65;100.00;96880.97;5124514;27;20042;-85
2023/06/11 07:02:24;;;;;;;14.80;5.97;;;;;;;26.29;100.00;96876.72;5129394;27;20027;-84
2023/06/11 07:04:50;;;;;;;9.20;6.53;;;;;;;26.49;100.00;96870.38;5125992;27;20021;-86
2023/06/11 07:07:16;;;;;;;10.07;7.30;;;;;;;26.45;100.00;96880.09;5118956;27;20023;-85
2023/06/11 07:09:41;;;;;;;25.88;16.25;;;;;;;26.04;100.00;96874.72;5108825;28;20031;-85
2023/06/11 07:12:07;;;;;;;19.77;8.35;;;;;;;26.26;100.00;96890.84;5092222;27;20024;-84
2023/06/11 07:14:33;;;;;;;13.45;6.97;;;;;;;26.81;100.00;96877.78;5129843;27;20027;-84
2023/06/11 07:16:58;;;;;;;9.20;5.65;;;;;;;27.83;97.72;96869.66;5123339;27;20019;-84
2023/06/11 07:19:24;;;;;;;9.70;5.53;;;;;;;29.65;87.76;96873.00;5114442;27;20511;-84
2023/06/11 07:21:50;;;;;;;10.07;6.57;;;;;;;30.73;73.03;96840.66;5121847;27;20023;-87
2023/06/11 07:24:15;;;;;;;11.38;6.15;;;;;;;31.35;67.35;96828.88;5102720;28;20024;-85
2023/06/11 07:26:42;;;;;;;72.45;48.10;;;;;;;31.60;70.76;96829.44;5097397;28;20059;-81
2023/06/11 07:29:07;;;;;;;12.30;6.70;;;;;;;31.97;65.24;96824.38;5114965;27;20024;-84
2023/06/11 07:31:33;;;;;;;8.82;5.20;;;;;;;32.34;58.51;96813.75;5111873;27;20046;-86
2023/06/11 07:33:58;;;;;;;9.43;5.43;;;;;;;32.90;53.87;96806.38;5105451;27;20031;-85
2023/06/11 07:36:26;;;;;;;7.18;5.15;;;;;;;32.96;51.29;96803.44;5113809;27;20041;-85
2023/06/11 07:38:52;;;;;;;6.38;5.25;;;;;;;32.56;53.39;96802.78;5125251;27;20419;-84
2023/06/11 07:41:18;;;;;;;8.18;4.97;;;;;;;31.44;53.97;96780.41;5106037;27;20474;-83
2023/06/11 07:43:44;;;;;;;5.82;5.15;;;;;;;31.28;55.55;96786.72;5124547;27;20140;-83
2023/06/11 07:46:10;;;;;;;11.25;4.65;;;;;;;31.34;55.37;96780.22;5118242;27;20084;-83
2023/06/11 07:48:41;;;;;;;14.48;5.43;;;;;;;31.34;56.98;96780.22;5100802;28;20456;-83
2023/06/11 07:51:06;;;;;;;6.13;4.70;;;;;;;32.01;56.97;96802.59;5120807;27;20104;-83
2023/06/11 07:53:33;;;;;;;43.05;6.70;;;;;;;32.34;55.14;96794.34;5115625;27;20055;-83
2023/06/11 07:55:59;;;;;;;9.52;4.72;;;;;;;32.38;54.33;96790.00;5107497;28;20480;-84
2023/06/11 07:58:24;;;;;;;10.45;5.28;;;;;;;33.36;50.46;96785.72;5109792;27;20054;-83
2023/06/11 08:00:51;;;;;;;5.53;4.55;;;;;;;33.36;50.35;96783.78;5105159;28;20031;-83
2023/06/11 08:03:35;;;;;;;10.10;5.22;;;;;;;32.81;53.25;96794.03;5126893;27;20076;-84
2023/06/11 08:06:00;;;;;;;8.60;5.15;;;;;;;31.96;55.63;96780.34;5101447;28;20031;-83
2023/06/11 08:08:26;;;;;;;7.40;5.38;;;;;;;32.55;53.30;96778.91;5126839;27;20360;-82
2023/06/11 08:10:51;;;;;;;12.27;5.15;;;;;;;31.87;54.76;96779.09;5094758;28;20380;-83
2023/06/11 08:13:18;;;;;;;19.00;9.30;;;;;;;31.51;59.08;96781.13;5112940;28;20475;-82
2023/06/11 08:15:43;;;;;;;7.50;5.00;;;;;;;31.37;59.19;96773.34;5108953;28;20523;-81
2023/06/11 08:18:09;;;;;;;10.70;6.70;;;;;;;31.42;58.35;96777.03;5127676;28;20070;-81
2023/06/11 08:20:35;;;;;;;13.48;6.82;;;;;;;30.71;62.38;96776.50;5104301;28;20027;-81
2023/06/11 08:23:00;;;;;;;6.82;5.05;;;;;;;30.66;64.03;96781.94;5109563;28;20167;-81
2023/06/11 08:25:26;;;;;;;6.65;4.90;;;;;;;30.56;65.35;96765.97;5122894;28;20045;-82
2023/06/11 08:27:51;;;;;;;7.18;5.38;;;;;;;30.42;67.69;96778.31;5126108;28;20088;-81
2023/06/11 08:30:17;;;;;;;7.75;4.80;;;;;;;30.71;65.03;96782.03;5107574;28;20806;-82
2023/06/11 08:32:42;;;;;;;5.50;4.90;;;;;;;31.66;59.31;96775.91;5107412;28;20027;-82
2023/06/11 08:35:08;;;;;;;7.10;4.82;;;;;;;32.28;55.87;96775.97;5125526;28;20084;-82
2023/06/11 08:37:34;;;;;;;6.45;4.63;;;;;;;33.47;53.92;96787.53;5125528;28;20068;-82
2023/06/11 08:39:59;;;;;;;8.10;5.25;;;;;;;34.50;49.90;96789.25;5095176;28;20398;-82
2023/06/11 08:42:25;;;;;;;6.75;4.90;;;;;;;35.81;46.75;96802.09;5124080;27;20028;-83
2023/06/11 08:44:51;;;;;;;6.03;4.60;;;;;;;36.93;41.66;96792.00;5108712;28;20027;-81
2023/06/11 08:47:16;;;;;;;6.30;4.55;;;;;;;37.44;40.35;96781.56;5110415;28;20027;-81
2023/06/11 08:50:02;;;;;;;15.57;5.55;;;;;;;36.98;41.56;96782.78;5125954;27;20027;-84
2023/06/11 08:52:30;;;;;;;30.27;23.65;;;;;;;38.46;38.56;96783.63;5110261;28;20031;-81
2023/06/11 08:54:56;;;;;;;13.35;7.75;;;;;;;37.15;39.72;96744.28;5123823;27;20023;-80
2023/06/11 08:57:21;;;;;;;10.02;5.05;;;;;;;36.92;40.65;96748.47;5107781;28;20026;-81
2023/06/11 08:59:47;;;;;;;7.82;4.90;;;;;;;37.41;40.03;96745.84;5111459;28;20046;-82
2023/06/11 09:02:12;;;;;;;6.65;4.70;;;;;;;38.46;38.37;96746.44;5108118;28;20027;-82
2023/06/11 09:04:43;;;;;;;11.38;4.55;;;;;;;38.80;37.59;96755.66;5114389;27;20035;-82
2023/06/11 09:07:09;;;;;;;10.48;4.72;;;;;;;38.86;37.56;96743.31;5124936;28;20019;-82
2023/06/11 09:09:34;;;;;;;5.22;4.70;;;;;;;38.78;37.41;96738.31;5108577;28;20027;-82
2023/06/11 09:12:13;;;;;;;7.85;5.00;;;;;;;39.70;36.64;96744.66;5098957;28;20463;-82
2023/06/11 09:14:38;;;;;;;6.80;4.97;;;;;;;38.40;37.29;96703.69;5095225;28;20031;-83
2023/06/11 09:17:04;;;;;;;5.90;4.88;;;;;;;38.01;38.02;96704.81;5106088;28;20031;-83
2023/06/11 09:19:30;;;;;;;7.30;4.75;;;;;;;37.93;38.36;96709.88;5110581;28;20051;-82
2023/06/11 09:21:56;;;;;;;6.15;4.50;;;;;;;38.05;38.27;96708.72;5120893;27;20510;-82
2023/06/11 09:24:23;;;;;;;6.28;4.07;;;;;;;38.29;37.78;96706.84;5109171;27;20077;-83
2023/06/11 09:26:57;;;;;;;10.68;6.20;;;;;;;38.44;36.90;96690.81;5118741;27;20072;-84
2023/06/11 09:29:24;;;;;;;36.15;27.80;;;;;;;36.93;39.60;96674.84;5112658;27;20505;-81
2023/06/11 09:32:04;;;;;;;15.60;11.57;;;;;;;36.91;39.45;96700.25;5117769;27;20019;-82
2023/06/11 09:34:30;;;;;;;9.02;5.10;;;;;;;36.83;39.49;96686.00;5099927;27;20093;-82
2023/06/11 09:36:55;;;;;;;8.13;4.68;;;;;;;35.34;42.18;96685.31;5093751;28;20027;-82
2023/06/11 09:39:21;;;;;;;17.77;14.80;;;;;;;36.15;41.57;96702.22;5127344;27;20478;-82
2023/06/11 09:41:48;;;;;;;6.18;4.80;;;;;;;36.93;39.55;96698.00;5123042;27;20084;-83
2023/06/11 09:44:14;;;;;;;7.05;5.15;;;;;;;36.94;40.01;96694.09;5104584;27;20064;-84
2023/06/11 09:46:40;;;;;;;6.60;4.20;;;;;;;38.47;37.50;96707.00;5111234;27;20019;-84
2023/06/11 09:49:06;;;;;;;7.05;4.60;;;;;;;37.26;38.78;96687.28;5119755;27;20061;-83
2023/06/11 09:51:33;;;;;;;7.47;5.07;;;;;;;36.42;40.27;96677.69;5125110;27;20027;-83
2023/06/11 09:53:59;;;;;;;6.28;4.40;;;;;;;35.47;41.94;96686.69;5116355;27;20023;-83
2023/06/11 09:56:25;;;;;;;10.57;6.18;;;;;;;34.86;43.35;96677.25;5133384;27;20106;-84
2023/06/11 09:58:51;;;;;;;6.47;4.97;;;;;;;33.97;44.90;96685.44;5114967;27;20501;-85
2023/06/11 10:01:17;;;;;;;6.60;5.00;;;;;;;32.90;50.44;96692.75;5095636;28;20491;-85
2023/06/11 10:03:43;;;;;;;7.47;4.55;;;;;;;32.61;51.50;96698.44;5126271;27;20031;-83
2023/06/11 10:06:19;;;;;;;7.43;5.32;;;;;;;33.06;49.73;96701.03;5127451;27;20020;-84
2023/06/11 10:08:45;;;;;;;8.95;4.85;;;;;;;32.39;52.00;96710.53;5114098;27;20027;-83
2023/06/11 10:11:11;;;;;;;9.10;4.80;;;;;;;31.57;56.84;96705.47;5114193;27;20143;-84
2023/06/11 10:13:37;;;;;;;8.80;4.88;;;;;;;31.10;62.59;96712.25;5121600;27;20492;-82
2023/06/11 10:16:04;;;;;;;7.78;5.20;;;;;;;30.54;67.40;96719.28;5103938;28;20031;-83
2023/06/11 10:18:30;;;;;;;7.72;5.40;;;;;;;30.46;68.89;96716.84;5104269;27;20513;-84
2023/06/11 10:21:03;;;;;;;5.55;4.85;;;;;;;30.54;62.88;96701.84;5127086;27;20046;-82
2023/06/11 10:23:40;;;;;;;9.85;5.00;;;;;;;30.21;65.32;96701.59;5124855;27;20023;-83
2023/06/11 10:26:06;;;;;;;9.65;7.28;;;;;;;29.82;67.54;96703.91;5087056;28;20027;-81
2023/06/11 10:28:54;;;;;;;90.68;63.88;;;;;;;29.83;63.86;96699.25;5099116;28;20020;-83
2023/06/11 10:31:28;;;;;;;11.40;6.15;;;;;;;29.85;66.85;96702.59;5116910;27;20403;-83
2023/06/11 10:34:04;;;;;;;10.95;5.10;;;;;;;29.43;71.55;96708.09;5104673;27;20054;-82
2023/06/11 10:36:37;;;;;;;14.18;10.07;;;;;;;29.08;70.43;96690.53;5120464;27;20038;-82
2023/06/11 10:39:05;;;;;;;8.73;5.55;;;;;;;29.98;64.72;96700.47;5125276;27;20406;-82
2023/06/11 10:41:30;;;;;;;7.15;4.55;;;;;;;30.18;58.09;96694.59;5118168;27;19999;-76
2023/06/11 10:43:59;;;;;;;9.85;5.30;;;;;;;29.38;62.50;96693.31;5097068;27;20509;-81
2023/06/11 10:46:25;;;;;;;10.07;6.55;;;;;;;28.67;68.73;96704.19;5112571;28;20098;-79
2023/06/11 10:48:52;;;;;;;9.38;4.88;;;;;;;28.15;72.32;96719.28;5095352;28;20103;-81
2023/06/11 10:51:18;;;;;;;12.23;4.88;;;;;;;27.44;76.34;96714.91;5094889;28;20118;-81
2023/06/11 10:53:43;;;;;;;8.82;4.60;;;;;;;27.07;72.91;96704.72;5114897;27;20156;-82
2023/06/11 10:56:12;;;;;;;7.10;4.32;;;;;;;26.86;74.93;96713.25;5117953;27;20027;-81
2023/06/11 10:58:38;;;;;;;8.82;5.85;;;;;;;26.72;79.15;96726.19;5122782;27;20426;-82
2023/06/11 11:01:07;;;;;;;9.65;5.80;;;;;;;26.60;83.36;96732.53;5110590;27;20035;-81
2023/06/11 11:03:33;;;;;;;8.48;5.43;;;;;;;26.47;84.37;96738.06;5125163;27;20161;-82
2023/06/11 11:05:59;;;;;;;9.15;4.90;;;;;;;26.42;88.29;96747.75;5106986;27;20059;-81
2023/06/11 11:08:25;;;;;;;5.10;3.97;;;;;;;26.01;89.59;96738.06;5108039;27;20115;-82
2023/06/11 11:10:59;;;;;;;7.13;4.43;;;;;;;25.14;93.89;96752.63;5122707;27;20031;-82
2023/06/11 11:13:25;;;;;;;5.90;3.95;;;;;;;24.86;96.32;96762.84;5115239;27;20114;-82
2023/06/11 11:15:51;;;;;;;7.68;4.03;;;;;;;24.84;100.00;96781.34;5127956;27;20102;-83
2023/06/11 11:18:35;;;;;;;7.55;3.67;;;;;;;24.71;99.51;96762.09;5119292;27;20047;-84
2023/06/11 11:21:01;;;;;;;4.38;3.15;;;;;;;24.36;98.65;96765.88;5125784;27;20399;-84
2023/06/11 11:23:26;;;;;;;9.82;4.20;;;;;;;24.04;100.00;96781.81;5115671;27;20046;-85
2023/06/11 11:25:52;;;;;;;124.50;8.80;;;;;;;24.22;99.01;96779.47;5116529;27;20118;-84
2023/06/11 11:28:17;;;;;;;7.47;3.70;;;;;;;24.18;98.76;96786.34;5111550;28;20035;-84
2023/06/11 11:30:43;;;;;;;9.48;3.75;;;;;;;24.15;97.21;96784.03;5119003;27;20110;-83
2023/06/11 11:33:10;;;;;;;7.45;3.22;;;;;;;24.89;91.28;96778.84;5124850;27;20073;-83